sensor_id;sensor_type;location;lat;lon;timestamp;temperature;humidity
3528;DHT22;1778;47.966;7.854;2023-06-22T00:00:58;19.40;99.90
3528;DHT22;1778;47.966;7.854;2023-06-22T00:02:00;19.50;99.90
3528;DHT22;1778;47.966;7.854;2023-06-22T00:03:02;19.50;99.90
3528;DHT22;1778;47.966;7.854;2023-06-22T00:04:04;19.40;99.90
3528;DHT22;1778;47.966;7.854;2023-06-22T00:05:06;19.40;99.90
3528;DHT22;1778;47.966;7.854;2023-06-22T00:06:07;19.40;99.90
3528;DHT22;1778;47.966;7.854;2023-06-22T00:07:10;19.40;99.90
3528;DHT22;1778;47.966;7.854;2023-06-22T00:08:12;19.40;99.90
3528;DHT22;1778;47.966;7.854;2023-06-22T00:09:14;19.40;99.90
3528;DHT22;1778;47.966;7.854;2023-06-22T00:10:15;19.40;99.90
3528;DHT22;1778;47.966;7.854;2023-06-22T00:11:17;19.50;99.90
3528;DHT22;1778;47.966;7.854;2023-06-22T00:12:19;19.40;99.90
3528;DHT22;1778;47.966;7.854;2023-06-22T00:13:21;19.50;99.90
3528;DHT22;1778;47.966;7.854;2023-06-22T00:14:22;19.40;99.90
3528;DHT22;1778;47.966;7.854;2023-06-22T00:15:24;19.40;99.90
3528;DHT22;1778;47.966;7.854;2023-06-22T00:16:25;19.30;99.90
3528;DHT22;1778;47.966;7.854;2023-06-22T00:17:27;19.30;99.90
3528;DHT22;1778;47.966;7.854;2023-06-22T00:18:29;19.30;99.90
3528;DHT22;1778;47.966;7.854;2023-06-22T00:19:32;19.30;99.90
3528;DHT22;1778;47.966;7.854;2023-06-22T00:20:37;19.30;99.90
3528;DHT22;1778;47.966;7.854;2023-06-22T00:21:38;19.30;99.90
3528;DHT22;1778;47.966;7.854;2023-06-22T00:22:40;19.30;99.90
3528;DHT22;1778;47.966;7.854;2023-06-22T00:23:44;19.30;99.90
3528;DHT22;1778;47.966;7.854;2023-06-22T00:24:46;19.30;99.90
3528;DHT22;1778;47.966;7.854;2023-06-22T00:25:47;19.30;99.90
3528;DHT22;1778;47.966;7.854;2023-06-22T00:26:49;19.30;99.90
3528;DHT22;1778;47.966;7.854;2023-06-22T00:27:50;19.30;99.90
3528;DHT22;1778;47.966;7.854;2023-06-22T00:28:52;19.30;99.90
3528;DHT22;1778;47.966;7.854;2023-06-22T00:29:53;19.20;99.90
3528;DHT22;1778;47.966;7.854;2023-06-22T00:30:56;19.20;99.90
3528;DHT22;1778;47.966;7.854;2023-06-22T00:31:59;19.20;99.90
3528;DHT22;1778;47.966;7.854;2023-06-22T00:33:01;19.20;99.90
3528;DHT22;1778;47.966;7.854;2023-06-22T00:34:03;19.20;99.90
3528;DHT22;1778;47.966;7.854;2023-06-22T00:35:07;19.20;99.90
3528;DHT22;1778;47.966;7.854;2023-06-22T00:36:08;19.20;99.90
3528;DHT22;1778;47.966;7.854;2023-06-22T00:37:14;19.20;99.90
3528;DHT22;1778;47.966;7.854;2023-06-22T00:38:16;19.20;99.90
3528;DHT22;1778;47.966;7.854;2023-06-22T00:39:17;19.10;99.90
3528;DHT22;1778;47.966;7.854;2023-06-22T00:40:19;19.10;99.90
3528;DHT22;1778;47.966;7.854;2023-06-22T00:41:23;19.10;99.90
3528;DHT22;1778;47.966;7.854;2023-06-22T00:42:24;19.10;99.90
3528;DHT22;1778;47.966;7.854;2023-06-22T00:43:27;19.10;99.90
3528;DHT22;1778;47.966;7.854;2023-06-22T00:44:28;19.10;99.90
3528;DHT22;1778;47.966;7.854;2023-06-22T00:45:31;19.10;99.90
3528;DHT22;1778;47.966;7.854;2023-06-22T00:46:32;19.10;99.90
3528;DHT22;1778;47.966;7.854;2023-06-22T00:47:35;19.10;99.90
3528;DHT22;1778;47.966;7.854;2023-06-22T00:48:38;19.10;99.90
3528;DHT22;1778;47.966;7.854;2023-06-22T00:49:42;19.00;99.90
3528;DHT22;1778;47.966;7.854;2023-06-22T00:50:45;19.00;99.90
3528;DHT22;1778;47.966;7.854;2023-06-22T00:51:50;19.00;99.90
3528;DHT22;1778;47.966;7.854;2023-06-22T00:52:53;19.00;99.90
3528;DHT22;1778;47.966;7.854;2023-06-22T00:53:57;19.00;99.90
3528;DHT22;1778;47.966;7.854;2023-06-22T00:55:01;19.00;99.90
3528;DHT22;1778;47.966;7.854;2023-06-22T00:56:04;19.00;99.90
3528;DHT22;1778;47.966;7.854;2023-06-22T00:57:09;19.00;99.90
3528;DHT22;1778;47.966;7.854;2023-06-22T00:58:13;19.00;99.90
3528;DHT22;1778;47.966;7.854;2023-06-22T00:59:15;18.90;99.90
3528;DHT22;1778;47.966;7.854;2023-06-22T01:00:18;18.90;99.90
3528;DHT22;1778;47.966;7.854;2023-06-22T01:01:21;18.90;99.90
3528;DHT22;1778;47.966;7.854;2023-06-22T01:02:24;18.90;99.90
3528;DHT22;1778;47.966;7.854;2023-06-22T01:03:26;18.90;99.90
3528;DHT22;1778;47.966;7.854;2023-06-22T01:04:35;18.90;99.90
3528;DHT22;1778;47.966;7.854;2023-06-22T01:05:38;18.90;99.90
3528;DHT22;1778;47.966;7.854;2023-06-22T01:06:49;18.90;99.90
3528;DHT22;1778;47.966;7.854;2023-06-22T01:09:30;18.90;99.90
3528;DHT22;1778;47.966;7.854;2023-06-22T01:10:52;18.90;99.90
3528;DHT22;1778;47.966;7.854;2023-06-22T01:12:02;19.00;99.90
3528;DHT22;1778;47.966;7.854;2023-06-22T01:13:29;19.00;99.90
3528;DHT22;1778;47.966;7.854;2023-06-22T01:14:40;19.00;99.90
3528;DHT22;1778;47.966;7.854;2023-06-22T01:15:51;19.00;99.90
3528;DHT22;1778;47.966;7.854;2023-06-22T01:16:55;18.90;99.90
3528;DHT22;1778;47.966;7.854;2023-06-22T01:17:59;18.90;99.90
3528;DHT22;1778;47.966;7.854;2023-06-22T01:20:15;18.90;99.90
3528;DHT22;1778;47.966;7.854;2023-06-22T01:21:21;18.90;99.90
3528;DHT22;1778;47.966;7.854;2023-06-22T01:22:27;18.90;99.90
3528;DHT22;1778;47.966;7.854;2023-06-22T01:25:31;18.80;99.90
3528;DHT22;1778;47.966;7.854;2023-06-22T01:28:18;18.70;99.90
3528;DHT22;1778;47.966;7.854;2023-06-22T01:29:21;18.70;99.90
3528;DHT22;1778;47.966;7.854;2023-06-22T01:30:24;18.60;99.90
3528;DHT22;1778;47.966;7.854;2023-06-22T01:31:28;18.60;99.90
3528;DHT22;1778;47.966;7.854;2023-06-22T01:32:33;18.60;99.90
3528;DHT22;1778;47.966;7.854;2023-06-22T01:33:40;18.70;99.90
3528;DHT22;1778;47.966;7.854;2023-06-22T01:34:46;18.70;99.90
3528;DHT22;1778;47.966;7.854;2023-06-22T01:38:52;18.60;99.90
3528;DHT22;1778;47.966;7.854;2023-06-22T01:39:55;18.60;99.90
3528;DHT22;1778;47.966;7.854;2023-06-22T01:40:57;18.60;99.90
3528;DHT22;1778;47.966;7.854;2023-06-22T01:42:00;18.60;99.90
3528;DHT22;1778;47.966;7.854;2023-06-22T01:43:03;18.60;99.90
3528;DHT22;1778;47.966;7.854;2023-06-22T01:44:06;18.60;99.90
3528;DHT22;1778;47.966;7.854;2023-06-22T01:45:11;18.60;99.90
3528;DHT22;1778;47.966;7.854;2023-06-22T01:46:14;18.60;99.90
3528;DHT22;1778;47.966;7.854;2023-06-22T01:47:16;18.60;99.90
3528;DHT22;1778;47.966;7.854;2023-06-22T01:48:18;18.60;99.90
3528;DHT22;1778;47.966;7.854;2023-06-22T01:49:20;18.60;99.90
3528;DHT22;1778;47.966;7.854;2023-06-22T01:50:22;18.60;99.90
3528;DHT22;1778;47.966;7.854;2023-06-22T01:51:24;18.60;99.90
3528;DHT22;1778;47.966;7.854;2023-06-22T01:52:25;18.70;99.90
3528;DHT22;1778;47.966;7.854;2023-06-22T01:53:27;18.60;99.90
3528;DHT22;1778;47.966;7.854;2023-06-22T01:54:29;18.60;99.90
3528;DHT22;1778;47.966;7.854;2023-06-22T01:55:31;18.60;99.90
3528;DHT22;1778;47.966;7.854;2023-06-22T01:56:32;18.60;99.90
3528;DHT22;1778;47.966;7.854;2023-06-22T01:57:34;18.50;99.90
3528;DHT22;1778;47.966;7.854;2023-06-22T01:58:42;18.50;99.90
3528;DHT22;1778;47.966;7.854;2023-06-22T02:00:53;18.50;99.90
3528;DHT22;1778;47.966;7.854;2023-06-22T02:02:04;18.50;99.90
3528;DHT22;1778;47.966;7.854;2023-06-22T02:03:14;18.50;99.90
3528;DHT22;1778;47.966;7.854;2023-06-22T02:04:22;18.40;99.90
3528;DHT22;1778;47.966;7.854;2023-06-22T02:05:38;18.40;99.90
3528;DHT22;1778;47.966;7.854;2023-06-22T02:06:43;18.40;99.90
3528;DHT22;1778;47.966;7.854;2023-06-22T02:07:55;18.40;99.90
3528;DHT22;1778;47.966;7.854;2023-06-22T02:09:02;18.40;99.90
3528;DHT22;1778;47.966;7.854;2023-06-22T02:10:04;18.40;99.90
3528;DHT22;1778;47.966;7.854;2023-06-22T02:11:09;18.40;99.90
3528;DHT22;1778;47.966;7.854;2023-06-22T02:12:13;18.30;99.90
3528;DHT22;1778;47.966;7.854;2023-06-22T02:13:18;18.40;99.90
3528;DHT22;1778;47.966;7.854;2023-06-22T02:14:21;18.30;99.90
3528;DHT22;1778;47.966;7.854;2023-06-22T02:15:23;18.40;99.90
3528;DHT22;1778;47.966;7.854;2023-06-22T02:16:28;18.40;99.90
3528;DHT22;1778;47.966;7.854;2023-06-22T02:17:32;18.40;99.90
3528;DHT22;1778;47.966;7.854;2023-06-22T02:18:35;18.40;99.90
3528;DHT22;1778;47.966;7.854;2023-06-22T02:19:38;18.40;99.90
3528;DHT22;1778;47.966;7.854;2023-06-22T02:20:42;18.40;99.90
3528;DHT22;1778;47.966;7.854;2023-06-22T02:21:45;18.40;99.90
3528;DHT22;1778;47.966;7.854;2023-06-22T02:22:47;18.40;99.90
3528;DHT22;1778;47.966;7.854;2023-06-22T02:23:49;18.40;99.90
3528;DHT22;1778;47.966;7.854;2023-06-22T02:24:50;18.50;99.90
3528;DHT22;1778;47.966;7.854;2023-06-22T02:25:53;18.50;99.90
3528;DHT22;1778;47.966;7.854;2023-06-22T02:26:59;18.40;99.90
3528;DHT22;1778;47.966;7.854;2023-06-22T02:28:02;18.40;99.90
3528;DHT22;1778;47.966;7.854;2023-06-22T02:29:04;18.40;99.90
3528;DHT22;1778;47.966;7.854;2023-06-22T02:30:07;18.30;99.90
3528;DHT22;1778;47.966;7.854;2023-06-22T02:31:09;18.30;99.90
3528;DHT22;1778;47.966;7.854;2023-06-22T02:32:11;18.30;99.90
3528;DHT22;1778;47.966;7.854;2023-06-22T02:33:12;18.30;99.90
3528;DHT22;1778;47.966;7.854;2023-06-22T02:34:14;18.30;99.90
3528;DHT22;1778;47.966;7.854;2023-06-22T02:35:19;18.30;99.90
3528;DHT22;1778;47.966;7.854;2023-06-22T02:36:21;18.30;99.90
3528;DHT22;1778;47.966;7.854;2023-06-22T02:37:23;18.30;99.90
3528;DHT22;1778;47.966;7.854;2023-06-22T02:38:26;18.30;99.90
3528;DHT22;1778;47.966;7.854;2023-06-22T02:39:28;18.30;99.90
3528;DHT22;1778;47.966;7.854;2023-06-22T02:40:30;18.30;99.90
3528;DHT22;1778;47.966;7.854;2023-06-22T02:41:32;18.30;99.90
3528;DHT22;1778;47.966;7.854;2023-06-22T02:42:34;18.40;99.90
3528;DHT22;1778;47.966;7.854;2023-06-22T02:43:36;18.40;99.90
3528;DHT22;1778;47.966;7.854;2023-06-22T02:44:37;18.40;99.90
3528;DHT22;1778;47.966;7.854;2023-06-22T02:45:39;18.40;99.90
3528;DHT22;1778;47.966;7.854;2023-06-22T02:46:41;18.30;99.90
3528;DHT22;1778;47.966;7.854;2023-06-22T02:47:43;18.40;99.90
3528;DHT22;1778;47.966;7.854;2023-06-22T02:48:45;18.30;99.90
3528;DHT22;1778;47.966;7.854;2023-06-22T02:49:47;18.40;99.90
3528;DHT22;1778;47.966;7.854;2023-06-22T02:50:49;18.30;99.90
3528;DHT22;1778;47.966;7.854;2023-06-22T02:51:51;18.30;99.90
3528;DHT22;1778;47.966;7.854;2023-06-22T02:52:54;18.30;99.90
3528;DHT22;1778;47.966;7.854;2023-06-22T02:53:56;18.30;99.90
3528;DHT22;1778;47.966;7.854;2023-06-22T02:55:01;18.30;99.90
3528;DHT22;1778;47.966;7.854;2023-06-22T02:56:04;18.30;99.90
3528;DHT22;1778;47.966;7.854;2023-06-22T02:57:11;18.20;99.90
3528;DHT22;1778;47.966;7.854;2023-06-22T02:58:16;18.20;99.90
3528;DHT22;1778;47.966;7.854;2023-06-22T02:59:19;18.20;99.90
3528;DHT22;1778;47.966;7.854;2023-06-22T03:00:27;18.20;99.90
3528;DHT22;1778;47.966;7.854;2023-06-22T03:01:32;18.20;99.90
3528;DHT22;1778;47.966;7.854;2023-06-22T03:02:48;18.20;99.90
3528;DHT22;1778;47.966;7.854;2023-06-22T03:03:52;18.10;99.90
3528;DHT22;1778;47.966;7.854;2023-06-22T03:04:53;18.20;99.90
3528;DHT22;1778;47.966;7.854;2023-06-22T03:05:56;18.20;99.90
3528;DHT22;1778;47.966;7.854;2023-06-22T03:06:58;18.10;99.90
3528;DHT22;1778;47.966;7.854;2023-06-22T03:08:04;18.10;99.90
3528;DHT22;1778;47.966;7.854;2023-06-22T03:09:08;18.10;99.90
3528;DHT22;1778;47.966;7.854;2023-06-22T03:10:11;18.10;99.90
3528;DHT22;1778;47.966;7.854;2023-06-22T03:11:14;18.00;99.90
3528;DHT22;1778;47.966;7.854;2023-06-22T03:12:16;18.10;99.90
3528;DHT22;1778;47.966;7.854;2023-06-22T03:13:24;18.10;99.90
3528;DHT22;1778;47.966;7.854;2023-06-22T03:14:26;18.10;99.90
3528;DHT22;1778;47.966;7.854;2023-06-22T03:15:28;18.10;99.90
3528;DHT22;1778;47.966;7.854;2023-06-22T03:16:31;18.10;99.90
3528;DHT22;1778;47.966;7.854;2023-06-22T03:17:35;18.10;99.90
3528;DHT22;1778;47.966;7.854;2023-06-22T03:18:37;18.00;99.90
3528;DHT22;1778;47.966;7.854;2023-06-22T03:19:39;18.00;99.90
3528;DHT22;1778;47.966;7.854;2023-06-22T03:20:41;18.00;99.90
3528;DHT22;1778;47.966;7.854;2023-06-22T03:21:43;18.00;99.90
3528;DHT22;1778;47.966;7.854;2023-06-22T03:22:44;17.90;99.90
3528;DHT22;1778;47.966;7.854;2023-06-22T03:23:46;18.00;99.90
3528;DHT22;1778;47.966;7.854;2023-06-22T03:24:47;18.00;99.90
3528;DHT22;1778;47.966;7.854;2023-06-22T03:25:49;18.00;99.90
3528;DHT22;1778;47.966;7.854;2023-06-22T03:26:51;18.00;99.90
3528;DHT22;1778;47.966;7.854;2023-06-22T03:27:52;18.00;99.90
3528;DHT22;1778;47.966;7.854;2023-06-22T03:28:56;18.00;99.90
3528;DHT22;1778;47.966;7.854;2023-06-22T03:29:57;18.10;99.90
3528;DHT22;1778;47.966;7.854;2023-06-22T03:31:01;18.10;99.90
3528;DHT22;1778;47.966;7.854;2023-06-22T03:32:05;18.00;99.90
3528;DHT22;1778;47.966;7.854;2023-06-22T03:33:07;18.00;99.90
3528;DHT22;1778;47.966;7.854;2023-06-22T03:34:09;18.00;99.90
3528;DHT22;1778;47.966;7.854;2023-06-22T03:35:10;18.00;99.90
3528;DHT22;1778;47.966;7.854;2023-06-22T03:36:16;17.90;99.90
3528;DHT22;1778;47.966;7.854;2023-06-22T03:37:20;17.90;99.90
3528;DHT22;1778;47.966;7.854;2023-06-22T03:38:23;17.90;99.90
3528;DHT22;1778;47.966;7.854;2023-06-22T03:39:28;17.90;99.90
3528;DHT22;1778;47.966;7.854;2023-06-22T03:40:31;17.80;99.90
3528;DHT22;1778;47.966;7.854;2023-06-22T03:41:34;17.80;99.90
3528;DHT22;1778;47.966;7.854;2023-06-22T03:42:36;17.80;99.90
3528;DHT22;1778;47.966;7.854;2023-06-22T03:43:38;17.90;99.90
3528;DHT22;1778;47.966;7.854;2023-06-22T03:44:40;17.90;99.90
3528;DHT22;1778;47.966;7.854;2023-06-22T03:45:41;17.90;99.90
3528;DHT22;1778;47.966;7.854;2023-06-22T03:46:43;17.90;99.90
3528;DHT22;1778;47.966;7.854;2023-06-22T03:47:45;17.80;99.90
3528;DHT22;1778;47.966;7.854;2023-06-22T03:48:47;17.90;99.90
3528;DHT22;1778;47.966;7.854;2023-06-22T03:49:48;17.90;99.90
3528;DHT22;1778;47.966;7.854;2023-06-22T03:50:50;17.90;99.90
3528;DHT22;1778;47.966;7.854;2023-06-22T03:51:51;18.00;99.90
3528;DHT22;1778;47.966;7.854;2023-06-22T03:52:53;18.00;99.90
3528;DHT22;1778;47.966;7.854;2023-06-22T03:53:54;18.00;99.90
3528;DHT22;1778;47.966;7.854;2023-06-22T03:54:57;18.00;99.90
3528;DHT22;1778;47.966;7.854;2023-06-22T03:55:58;18.00;99.90
3528;DHT22;1778;47.966;7.854;2023-06-22T03:57:00;18.00;99.90
3528;DHT22;1778;47.966;7.854;2023-06-22T03:58:01;18.00;99.90
3528;DHT22;1778;47.966;7.854;2023-06-22T03:59:07;18.00;99.90
3528;DHT22;1778;47.966;7.854;2023-06-22T04:00:09;18.10;99.90
3528;DHT22;1778;47.966;7.854;2023-06-22T04:01:14;18.10;99.90
3528;DHT22;1778;47.966;7.854;2023-06-22T04:02:18;18.10;99.90
3528;DHT22;1778;47.966;7.854;2023-06-22T04:03:19;18.20;99.90
3528;DHT22;1778;47.966;7.854;2023-06-22T04:04:22;18.20;99.90
3528;DHT22;1778;47.966;7.854;2023-06-22T04:05:23;18.20;99.90
3528;DHT22;1778;47.966;7.854;2023-06-22T04:06:26;18.20;99.90
3528;DHT22;1778;47.966;7.854;2023-06-22T04:07:27;18.20;99.90
3528;DHT22;1778;47.966;7.854;2023-06-22T04:08:29;18.20;99.90
3528;DHT22;1778;47.966;7.854;2023-06-22T04:09:31;18.20;99.90
3528;DHT22;1778;47.966;7.854;2023-06-22T04:10:33;18.20;99.90
3528;DHT22;1778;47.966;7.854;2023-06-22T04:11:35;18.20;99.90
3528;DHT22;1778;47.966;7.854;2023-06-22T04:12:36;18.20;99.90
3528;DHT22;1778;47.966;7.854;2023-06-22T04:13:38;18.20;99.90
3528;DHT22;1778;47.966;7.854;2023-06-22T04:14:39;18.20;99.90
3528;DHT22;1778;47.966;7.854;2023-06-22T04:15:41;18.20;99.90
3528;DHT22;1778;47.966;7.854;2023-06-22T04:16:43;18.20;99.90
3528;DHT22;1778;47.966;7.854;2023-06-22T04:17:44;18.10;99.90
3528;DHT22;1778;47.966;7.854;2023-06-22T04:18:46;18.10;99.90
3528;DHT22;1778;47.966;7.854;2023-06-22T04:19:47;18.20;99.90
3528;DHT22;1778;47.966;7.854;2023-06-22T04:20:49;18.20;99.90
3528;DHT22;1778;47.966;7.854;2023-06-22T04:21:51;18.20;99.90
3528;DHT22;1778;47.966;7.854;2023-06-22T04:22:53;18.20;99.90
3528;DHT22;1778;47.966;7.854;2023-06-22T04:23:55;18.20;99.90
3528;DHT22;1778;47.966;7.854;2023-06-22T04:24:56;18.20;99.90
3528;DHT22;1778;47.966;7.854;2023-06-22T04:25:58;18.20;99.90
3528;DHT22;1778;47.966;7.854;2023-06-22T04:27:00;18.30;99.90
3528;DHT22;1778;47.966;7.854;2023-06-22T04:28:04;18.30;99.90
3528;DHT22;1778;47.966;7.854;2023-06-22T04:29:06;18.30;99.90
3528;DHT22;1778;47.966;7.854;2023-06-22T04:30:10;18.30;99.90
3528;DHT22;1778;47.966;7.854;2023-06-22T04:31:12;18.30;99.90
3528;DHT22;1778;47.966;7.854;2023-06-22T04:32:14;18.30;99.90
3528;DHT22;1778;47.966;7.854;2023-06-22T04:33:17;18.30;99.90
3528;DHT22;1778;47.966;7.854;2023-06-22T04:34:19;18.30;99.90
3528;DHT22;1778;47.966;7.854;2023-06-22T04:35:20;18.30;99.90
3528;DHT22;1778;47.966;7.854;2023-06-22T04:36:24;18.40;99.90
3528;DHT22;1778;47.966;7.854;2023-06-22T04:37:26;18.30;99.90
3528;DHT22;1778;47.966;7.854;2023-06-22T04:38:28;18.30;99.90
3528;DHT22;1778;47.966;7.854;2023-06-22T04:39:30;18.30;99.90
3528;DHT22;1778;47.966;7.854;2023-06-22T04:40:33;18.40;99.90
3528;DHT22;1778;47.966;7.854;2023-06-22T04:41:38;18.40;99.90
3528;DHT22;1778;47.966;7.854;2023-06-22T04:42:45;18.40;99.90
3528;DHT22;1778;47.966;7.854;2023-06-22T04:43:54;18.40;99.90
3528;DHT22;1778;47.966;7.854;2023-06-22T04:45:01;18.50;99.90
3528;DHT22;1778;47.966;7.854;2023-06-22T04:46:03;18.50;99.90
3528;DHT22;1778;47.966;7.854;2023-06-22T04:47:05;18.50;99.90
3528;DHT22;1778;47.966;7.854;2023-06-22T04:48:09;18.50;99.90
3528;DHT22;1778;47.966;7.854;2023-06-22T04:49:12;18.50;99.90
3528;DHT22;1778;47.966;7.854;2023-06-22T04:50:13;18.50;99.90
3528;DHT22;1778;47.966;7.854;2023-06-22T04:51:15;18.50;99.90
3528;DHT22;1778;47.966;7.854;2023-06-22T04:52:17;18.50;99.90
3528;DHT22;1778;47.966;7.854;2023-06-22T04:53:19;18.60;99.90
3528;DHT22;1778;47.966;7.854;2023-06-22T04:54:20;18.60;99.90
3528;DHT22;1778;47.966;7.854;2023-06-22T04:55:22;18.60;99.90
3528;DHT22;1778;47.966;7.854;2023-06-22T04:56:23;18.60;99.90
3528;DHT22;1778;47.966;7.854;2023-06-22T04:57:29;18.60;99.90
3528;DHT22;1778;47.966;7.854;2023-06-22T04:58:34;18.70;99.90
3528;DHT22;1778;47.966;7.854;2023-06-22T04:59:37;18.70;99.90
3528;DHT22;1778;47.966;7.854;2023-06-22T05:00:40;18.70;99.90
3528;DHT22;1778;47.966;7.854;2023-06-22T05:01:42;18.80;99.90
3528;DHT22;1778;47.966;7.854;2023-06-22T05:02:45;18.80;99.90
3528;DHT22;1778;47.966;7.854;2023-06-22T05:03:47;18.80;99.90
3528;DHT22;1778;47.966;7.854;2023-06-22T05:04:49;18.80;99.90
3528;DHT22;1778;47.966;7.854;2023-06-22T05:05:53;18.90;99.90
3528;DHT22;1778;47.966;7.854;2023-06-22T05:06:55;18.90;99.90
3528;DHT22;1778;47.966;7.854;2023-06-22T05:07:56;19.00;99.90
3528;DHT22;1778;47.966;7.854;2023-06-22T05:09:01;19.00;99.90
3528;DHT22;1778;47.966;7.854;2023-06-22T05:10:03;19.00;99.90
3528;DHT22;1778;47.966;7.854;2023-06-22T05:11:05;19.10;99.90
3528;DHT22;1778;47.966;7.854;2023-06-22T05:12:07;19.10;99.90
3528;DHT22;1778;47.966;7.854;2023-06-22T05:13:12;19.10;99.90
3528;DHT22;1778;47.966;7.854;2023-06-22T05:14:13;19.20;99.90
3528;DHT22;1778;47.966;7.854;2023-06-22T05:15:15;19.30;99.90
3528;DHT22;1778;47.966;7.854;2023-06-22T05:16:17;19.30;99.90
3528;DHT22;1778;47.966;7.854;2023-06-22T05:17:19;19.30;99.90
3528;DHT22;1778;47.966;7.854;2023-06-22T05:18:21;19.30;99.90
3528;DHT22;1778;47.966;7.854;2023-06-22T05:19:25;19.40;99.90
3528;DHT22;1778;47.966;7.854;2023-06-22T05:20:32;19.40;99.90
3528;DHT22;1778;47.966;7.854;2023-06-22T05:21:38;19.50;99.90
3528;DHT22;1778;47.966;7.854;2023-06-22T05:22:40;19.50;99.90
3528;DHT22;1778;47.966;7.854;2023-06-22T05:23:42;19.60;99.90
3528;DHT22;1778;47.966;7.854;2023-06-22T05:24:44;19.60;99.90
3528;DHT22;1778;47.966;7.854;2023-06-22T05:26:04;19.60;99.90
3528;DHT22;1778;47.966;7.854;2023-06-22T05:27:42;19.70;99.90
3528;DHT22;1778;47.966;7.854;2023-06-22T05:29:21;19.70;99.90
3528;DHT22;1778;47.966;7.854;2023-06-22T05:30:42;19.70;99.90
3528;DHT22;1778;47.966;7.854;2023-06-22T05:32:20;19.80;99.90
3528;DHT22;1778;47.966;7.854;2023-06-22T05:33:58;19.80;99.90
3528;DHT22;1778;47.966;7.854;2023-06-22T05:35:20;19.90;99.90
3528;DHT22;1778;47.966;7.854;2023-06-22T05:36:22;19.90;99.90
3528;DHT22;1778;47.966;7.854;2023-06-22T05:37:26;19.90;99.90
3528;DHT22;1778;47.966;7.854;2023-06-22T05:38:28;19.90;99.90
3528;DHT22;1778;47.966;7.854;2023-06-22T05:39:29;20.00;99.90
3528;DHT22;1778;47.966;7.854;2023-06-22T05:40:31;20.00;99.90
3528;DHT22;1778;47.966;7.854;2023-06-22T05:41:32;20.10;99.90
3528;DHT22;1778;47.966;7.854;2023-06-22T05:42:34;20.10;99.90
3528;DHT22;1778;47.966;7.854;2023-06-22T05:43:36;20.20;99.90
3528;DHT22;1778;47.966;7.854;2023-06-22T05:44:37;20.20;99.90
3528;DHT22;1778;47.966;7.854;2023-06-22T05:45:40;20.30;99.90
3528;DHT22;1778;47.966;7.854;2023-06-22T05:46:43;20.30;99.90
3528;DHT22;1778;47.966;7.854;2023-06-22T05:47:49;20.40;99.90
3528;DHT22;1778;47.966;7.854;2023-06-22T05:48:51;20.40;99.90
3528;DHT22;1778;47.966;7.854;2023-06-22T05:49:52;20.40;99.90
3528;DHT22;1778;47.966;7.854;2023-06-22T05:50:54;20.50;99.90
3528;DHT22;1778;47.966;7.854;2023-06-22T05:51:56;20.50;99.90
3528;DHT22;1778;47.966;7.854;2023-06-22T05:52:58;20.60;99.90
3528;DHT22;1778;47.966;7.854;2023-06-22T05:53:59;20.60;99.90
3528;DHT22;1778;47.966;7.854;2023-06-22T05:55:02;20.60;99.90
3528;DHT22;1778;47.966;7.854;2023-06-22T05:56:06;20.70;99.90
3528;DHT22;1778;47.966;7.854;2023-06-22T05:57:08;20.70;99.90
3528;DHT22;1778;47.966;7.854;2023-06-22T05:58:10;20.80;99.90
3528;DHT22;1778;47.966;7.854;2023-06-22T05:59:11;20.90;99.90
3528;DHT22;1778;47.966;7.854;2023-06-22T06:00:13;20.90;99.90
3528;DHT22;1778;47.966;7.854;2023-06-22T06:01:17;21.00;99.90
3528;DHT22;1778;47.966;7.854;2023-06-22T06:02:19;21.00;99.90
3528;DHT22;1778;47.966;7.854;2023-06-22T06:03:21;21.10;99.90
3528;DHT22;1778;47.966;7.854;2023-06-22T06:04:23;21.00;99.90
3528;DHT22;1778;47.966;7.854;2023-06-22T06:05:25;20.90;99.90
3528;DHT22;1778;47.966;7.854;2023-06-22T06:06:26;21.00;99.90
3528;DHT22;1778;47.966;7.854;2023-06-22T06:07:30;21.00;99.90
3528;DHT22;1778;47.966;7.854;2023-06-22T06:08:31;20.90;99.90
3528;DHT22;1778;47.966;7.854;2023-06-22T06:09:33;20.90;99.90
3528;DHT22;1778;47.966;7.854;2023-06-22T06:10:35;20.90;99.90
3528;DHT22;1778;47.966;7.854;2023-06-22T06:11:37;20.90;99.90
3528;DHT22;1778;47.966;7.854;2023-06-22T06:12:39;21.00;99.90
3528;DHT22;1778;47.966;7.854;2023-06-22T06:13:40;21.00;99.90
3528;DHT22;1778;47.966;7.854;2023-06-22T06:14:42;21.20;99.90
3528;DHT22;1778;47.966;7.854;2023-06-22T06:15:44;21.30;99.90
3528;DHT22;1778;47.966;7.854;2023-06-22T06:16:48;21.30;99.90
3528;DHT22;1778;47.966;7.854;2023-06-22T06:17:52;21.40;99.90
3528;DHT22;1778;47.966;7.854;2023-06-22T06:18:54;21.30;99.90
3528;DHT22;1778;47.966;7.854;2023-06-22T06:19:59;21.20;99.90
3528;DHT22;1778;47.966;7.854;2023-06-22T06:21:01;21.10;99.90
3528;DHT22;1778;47.966;7.854;2023-06-22T06:22:03;21.10;99.90
3528;DHT22;1778;47.966;7.854;2023-06-22T06:23:05;21.20;99.90
3528;DHT22;1778;47.966;7.854;2023-06-22T06:24:07;21.30;99.90
3528;DHT22;1778;47.966;7.854;2023-06-22T06:25:09;21.30;99.90
3528;DHT22;1778;47.966;7.854;2023-06-22T06:26:11;21.30;99.90
3528;DHT22;1778;47.966;7.854;2023-06-22T06:27:13;21.30;99.90
3528;DHT22;1778;47.966;7.854;2023-06-22T06:28:15;21.40;99.90
3528;DHT22;1778;47.966;7.854;2023-06-22T06:29:16;21.40;99.90
3528;DHT22;1778;47.966;7.854;2023-06-22T06:30:19;21.50;99.90
3528;DHT22;1778;47.966;7.854;2023-06-22T06:31:21;21.70;99.90
3528;DHT22;1778;47.966;7.854;2023-06-22T06:32:23;21.80;99.90
3528;DHT22;1778;47.966;7.854;2023-06-22T06:33:25;21.90;99.90
3528;DHT22;1778;47.966;7.854;2023-06-22T06:34:27;22.10;99.90
3528;DHT22;1778;47.966;7.854;2023-06-22T06:35:28;22.10;99.90
3528;DHT22;1778;47.966;7.854;2023-06-22T06:36:30;22.10;99.90
3528;DHT22;1778;47.966;7.854;2023-06-22T06:37:36;22.20;99.90
3528;DHT22;1778;47.966;7.854;2023-06-22T06:38:38;22.50;99.90
3528;DHT22;1778;47.966;7.854;2023-06-22T06:39:40;22.60;99.90
3528;DHT22;1778;47.966;7.854;2023-06-22T06:40:44;22.80;99.90
3528;DHT22;1778;47.966;7.854;2023-06-22T06:41:47;22.90;99.90
3528;DHT22;1778;47.966;7.854;2023-06-22T06:42:50;23.00;99.90
3528;DHT22;1778;47.966;7.854;2023-06-22T06:43:51;23.10;99.90
3528;DHT22;1778;47.966;7.854;2023-06-22T06:44:53;23.20;99.90
3528;DHT22;1778;47.966;7.854;2023-06-22T06:45:54;23.20;99.90
3528;DHT22;1778;47.966;7.854;2023-06-22T06:46:56;23.30;99.90
3528;DHT22;1778;47.966;7.854;2023-06-22T06:47:57;23.40;99.90
3528;DHT22;1778;47.966;7.854;2023-06-22T06:48:59;23.40;99.90
3528;DHT22;1778;47.966;7.854;2023-06-22T06:50:02;23.30;99.90
3528;DHT22;1778;47.966;7.854;2023-06-22T06:51:04;23.30;99.90
3528;DHT22;1778;47.966;7.854;2023-06-22T06:52:06;23.40;99.90
3528;DHT22;1778;47.966;7.854;2023-06-22T06:53:26;23.40;99.90
3528;DHT22;1778;47.966;7.854;2023-06-22T06:54:47;23.50;99.90
3528;DHT22;1778;47.966;7.854;2023-06-22T06:56:08;23.40;99.90
3528;DHT22;1778;47.966;7.854;2023-06-22T06:57:30;23.50;99.90
3528;DHT22;1778;47.966;7.854;2023-06-22T06:58:51;23.40;99.90
3528;DHT22;1778;47.966;7.854;2023-06-22T07:00:12;23.40;99.90
3528;DHT22;1778;47.966;7.854;2023-06-22T07:01:34;23.40;99.90
3528;DHT22;1778;47.966;7.854;2023-06-22T07:02:56;23.30;99.90
3528;DHT22;1778;47.966;7.854;2023-06-22T07:04:16;23.30;99.90
3528;DHT22;1778;47.966;7.854;2023-06-22T07:05:37;23.30;99.90
3528;DHT22;1778;47.966;7.854;2023-06-22T07:06:58;23.20;99.90
3528;DHT22;1778;47.966;7.854;2023-06-22T07:08:18;23.20;99.90
3528;DHT22;1778;47.966;7.854;2023-06-22T07:09:38;23.20;99.90